Time;durP1;ratioP1;P1;durP2;ratioP2;P2;SDS_P1;SDS_P2;PMS_P1;PMS_P2;Temp;Humidity;BMP_temperature;BMP_pressure;BME280_temperature;BME280_humidity;BME280_pressure;Samples;Min_cycle;Max_cycle;Signal;HPM_P1;HPM_P2
2023/07/13 00:02:16;;;;;;;;;;;;;;;25.93;59.36;100147.19;5448436;32;35100;-80
2023/07/13 00:05:18;;;;;;;;;;;;;;;25.65;63.17;100138.50;5434847;32;35244;-71
2023/07/13 00:08:20;;;;;;;;;;;;;;;25.61;63.18;100137.12;5462247;32;34655;-80
2023/07/13 00:11:22;;;;;;;;;;;;;;;25.52;64.30;100140.81;5442378;32;34364;-80
2023/07/13 00:14:24;;;;;;;;;;;;;;;25.46;63.88;100138.78;5440310;32;35429;-79
2023/07/13 00:17:27;;;;;;;;;;;;;;;25.08;66.08;100115.91;5450612;32;34853;-71
2023/07/13 00:20:28;;;;;;;;;;;;;;;24.71;69.49;100106.22;5463565;32;35398;-80
2023/07/13 00:23:33;;;;;;;;;;;;;;;24.32;70.40;100097.66;5459418;32;35429;-79
2023/07/13 00:26:35;;;;;;;;;;;;;;;25.10;68.22;100089.69;5461740;32;35017;-71
2023/07/13 00:29:37;;;;;;;;;;;;;;;24.76;66.69;100065.44;5459551;32;34952;-78
2023/07/13 00:32:39;;;;;;;;;;;;;;;24.55;66.55;100052.41;5464757;32;34904;-70
2023/07/13 00:35:43;;;;;;;;;;;;;;;24.75;65.12;100036.87;5462226;32;35643;-71
2023/07/13 00:38:46;;;;;;;;;;;;;;;24.83;64.22;100037.75;5466534;32;35337;-71
2023/07/13 00:41:49;;;;;;;;;;;;;;;24.54;63.65;100026.53;5461741;32;35807;-79
2023/07/13 00:45:09;;;;;;;;;;;;;;;24.95;61.80;100010.63;5465210;32;35322;-71
2023/07/13 00:48:11;;;;;;;;;;;;;;;25.07;61.77;100004.81;5464560;32;34530;-79
2023/07/13 00:51:14;;;;;;;;;;;;;;;25.76;58.22;100013.59;5434038;32;34989;-77
2023/07/13 00:54:35;;;;;;;;;;;;;;;25.87;58.22;100004.31;5451581;32;34756;-71
2023/07/13 00:57:37;;;;;;;;;;;;;;;25.52;59.26;99994.69;5445101;32;35453;-78
2023/07/13 01:00:39;;;;;;;;;;;;;;;25.89;57.48;99988.84;5466268;32;35608;-71
2023/07/13 01:03:41;;;;;;;;;;;;;;;26.12;56.91;99994.37;5463092;32;34831;-77
2023/07/13 01:06:43;;;;;;;;;;;;;;;26.22;55.57;99981.59;5462551;32;34729;-78
2023/07/13 01:09:46;;;;;;;;;;;;;;;26.28;54.81;99980.09;5453646;32;34499;-77
2023/07/13 01:12:47;;;;;;;;;;;;;;;26.78;53.32;99976.25;5462686;32;34675;-77
2023/07/13 01:15:51;;;;;;;;;;;;;;;26.76;53.35;99972.91;5469099;32;34740;-78
2023/07/13 01:18:58;;;;;;;;;;;;;;;26.20;54.45;99975.53;5451266;32;34272;-78
2023/07/13 01:22:00;;;;;;;;;;;;;;;27.42;51.17;99993.97;5452034;32;32891;-70
2023/07/13 01:25:03;;;;;;;;;;;;;;;26.56;53.46;99981.38;5452984;32;34400;-72
2023/07/13 01:28:05;;;;;;;;;;;;;;;25.79;56.36;99975.56;5461875;32;35135;-70
2023/07/13 01:31:09;;;;;;;;;;;;;;;26.55;53.48;99995.03;5454206;32;34854;-70
2023/07/13 01:34:11;;;;;;;;;;;;;;;25.96;55.51;99989.03;5450256;32;34709;-70
2023/07/13 01:37:12;;;;;;;;;;;;;;;25.99;55.62;99977.91;5457103;32;35269;-71
2023/07/13 01:40:14;;;;;;;;;;;;;;;25.38;57.63;99974.66;5437110;32;35267;-78
2023/07/13 01:43:17;;;;;;;;;;;;;;;25.43;57.65;99979.50;5471456;32;34939;-79
2023/07/13 01:46:19;;;;;;;;;;;;;;;25.38;57.88;99963.91;5437421;32;34651;-79
2023/07/13 01:49:24;;;;;;;;;;;;;;;26.65;53.99;99960.63;5459064;32;34413;-79
2023/07/13 01:52:26;;;;;;;;;;;;;;;25.58;57.36;99953.66;5454412;32;35085;-70
2023/07/13 01:55:29;;;;;;;;;;;;;;;26.60;54.38;99957.59;5464842;32;34829;-79
2023/07/13 01:58:31;;;;;;;;;;;;;;;25.53;57.39;99958.69;5466346;32;33526;-79
2023/07/13 02:01:35;;;;;;;;;;;;;;;25.63;57.40;99957.53;5462977;32;34685;-71
2023/07/13 02:04:37;;;;;;;;;;;;;;;25.99;56.40;99938.34;5453645;32;35465;-70
2023/07/13 02:07:39;;;;;;;;;;;;;;;26.82;53.34;99937.16;5468201;32;34999;-78
2023/07/13 02:10:41;;;;;;;;;;;;;;;26.57;54.11;99928.31;5465117;32;34962;-71
2023/07/13 02:13:43;;;;;;;;;;;;;;;25.64;56.98;99939.53;5468498;32;34352;-78
2023/07/13 02:16:45;;;;;;;;;;;;;;;25.65;57.07;99946.59;5449033;32;34146;-74
2023/07/13 02:19:47;;;;;;;;;;;;;;;26.26;55.47;99947.91;5467778;32;34182;-71
2023/07/13 02:22:49;;;;;;;;;;;;;;;26.72;54.06;99948.13;5451133;32;35471;-78
2023/07/13 02:25:55;;;;;;;;;;;;;;;25.59;57.51;99950.78;5462875;32;34460;-70
2023/07/13 02:28:57;;;;;;;;;;;;;;;25.77;57.21;99947.97;5438015;32;35231;-77
2023/07/13 02:31:59;;;;;;;;;;;;;;;25.55;58.45;99946.75;5450747;32;34569;-71
2023/07/13 02:35:01;;;;;;;;;;;;;;;25.23;59.98;99944.84;5459287;32;34953;-71
2023/07/13 02:38:03;;;;;;;;;;;;;;;25.96;57.76;99945.97;5435308;32;35089;-70
2023/07/13 02:41:06;;;;;;;;;;;;;;;25.16;60.17;99967.19;5471586;32;34334;-78
2023/07/13 02:44:08;;;;;;;;;;;;;;;24.93;61.03;99966.94;5449820;32;34661;-78
2023/07/13 02:47:10;;;;;;;;;;;;;;;24.54;62.58;99962.06;5449755;32;34442;-70
2023/07/13 02:50:12;;;;;;;;;;;;;;;24.88;62.10;99961.19;5453294;32;35062;-69
2023/07/13 02:53:14;;;;;;;;;;;;;;;24.74;63.10;99968.88;5466458;32;34895;-70
2023/07/13 02:56:16;;;;;;;;;;;;;;;24.43;65.12;99976.59;5469623;32;34569;-78
2023/07/13 02:59:18;;;;;;;;;;;;;;;24.16;66.73;99980.25;5448693;32;35295;-79
2023/07/13 03:02:20;;;;;;;;;;;;;;;23.83;68.98;99983.66;5442929;32;35012;-78
2023/07/13 03:05:22;;;;;;;;;;;;;;;24.42;66.93;99972.22;5461510;32;35581;-79
2023/07/13 03:08:25;;;;;;;;;;;;;;;24.28;68.15;99984.38;5463468;32;35313;-70
2023/07/13 03:11:27;;;;;;;;;;;;;;;23.89;69.90;100001.81;5465043;32;34999;-79
2023/07/13 03:14:30;;;;;;;;;;;;;;;24.39;68.56;100001.22;5463540;32;34656;-71
2023/07/13 03:17:34;;;;;;;;;;;;;;;23.34;72.60;100020.72;5467148;32;34476;-70
2023/07/13 03:20:36;;;;;;;;;;;;;;;23.58;72.96;100012.09;5463102;32;35060;-79
2023/07/13 03:23:38;;;;;;;;;;;;;;;24.10;70.55;100013.09;5451880;32;34811;-79
2023/07/13 03:26:40;;;;;;;;;;;;;;;24.36;68.75;100015.84;5466189;32;34863;-71
2023/07/13 03:29:42;;;;;;;;;;;;;;;24.04;69.59;100006.50;5458776;32;34390;-77
2023/07/13 03:32:44;;;;;;;;;;;;;;;24.23;69.28;99993.91;5467215;32;34195;-71
2023/07/13 03:35:46;;;;;;;;;;;;;;;24.17;68.65;100011.47;5447760;32;35276;-71
2023/07/13 03:38:48;;;;;;;;;;;;;;;24.16;69.60;100000.91;5466806;32;34702;-77
2023/07/13 03:41:51;;;;;;;;;;;;;;;23.86;70.64;99991.41;5453341;32;34590;-79
2023/07/13 03:44:55;;;;;;;;;;;;;;;24.28;68.88;99984.38;5465497;32;34449;-79
2023/07/13 03:47:57;;;;;;;;;;;;;;;24.41;67.38;99994.72;5434629;32;34806;-80
2023/07/13 03:51:00;;;;;;;;;;;;;;;24.55;66.65;100014.78;5447945;32;35473;-78
2023/07/13 03:54:02;;;;;;;;;;;;;;;24.99;65.47;100009.25;5467309;32;33485;-72
2023/07/13 03:57:04;;;;;;;;;;;;;;;24.51;66.69;100014.25;5442445;32;34506;-71
2023/07/13 04:00:07;;;;;;;;;;;;;;;25.10;63.90;100009.84;5466048;32;33850;-71
2023/07/13 04:03:09;;;;;;;;;;;;;;;25.28;63.20;100003.53;5463204;32;35554;-78
2023/07/13 04:06:21;;;;;;;;;;;;;;;25.15;63.21;100011.22;5464889;32;34736;-79
2023/07/13 04:09:23;;;;;;;;;;;;;;;25.49;61.03;100001.22;5463287;32;34825;-79
2023/07/13 04:12:25;;;;;;;;;;;;;;;25.16;62.41;100027.19;5448049;32;34281;-70
2023/07/13 04:15:30;;;;;;;;;;;;;;;26.29;58.17;100044.56;5454197;32;35125;-79
2023/07/13 04:18:32;;;;;;;;;;;;;;;25.65;59.29;100081.16;5448432;32;35191;-71
2023/07/13 04:21:34;;;;;;;;;;;;;;;25.78;58.57;100076.16;5452444;32;35581;-79
2023/07/13 04:24:37;;;;;;;;;;;;;;;25.45;58.44;100087.81;5462023;32;34742;-74
2023/07/13 04:27:39;;;;;;;;;;;;;;;25.45;58.66;100091.34;5448251;32;35671;-73
2023/07/13 04:30:41;;;;;;;;;;;;;;;25.71;57.64;100083.19;5461445;32;34812;-78
2023/07/13 04:33:43;;;;;;;;;;;;;;;25.52;57.44;100083.47;5461552;32;34816;-71
2023/07/13 04:36:49;;;;;;;;;;;;;;;25.39;57.78;100076.69;5466007;32;36086;-71
2023/07/13 04:39:51;;;;;;;;;;;;;;;25.98;56.07;100090.16;5461287;32;35085;-78
2023/07/13 04:42:53;;;;;;;;;;;;;;;25.50;57.63;100098.91;5454084;32;35508;-78
2023/07/13 04:45:56;;;;;;;;;;;;;;;26.13;55.60;100101.09;5461352;32;35072;-80
2023/07/13 04:48:58;;;;;;;;;;;;;;;25.65;57.06;100108.91;5462374;32;34909;-80
2023/07/13 04:52:00;;;;;;;;;;;;;;;26.58;54.64;100115.94;5453199;32;35051;-78
2023/07/13 04:55:02;;;;;;;;;;;;;;;26.74;54.31;100118.66;5448704;32;34097;-71
2023/07/13 04:58:04;;;;;;;;;;;;;;;27.02;53.92;100129.03;5468290;32;34942;-80
2023/07/13 05:01:07;;;;;;;;;;;;;;;26.65;55.84;100143.91;5449220;32;36060;-80
2023/07/13 05:04:09;;;;;;;;;;;;;;;26.12;57.48;100158.66;5453596;32;34427;-79
2023/07/13 05:07:11;;;;;;;;;;;;;;;26.38;56.78;100167.47;5463861;32;34764;-77
2023/07/13 05:10:13;;;;;;;;;;;;;;;26.91;56.62;100192.25;5449984;32;34455;-71
2023/07/13 05:13:15;;;;;;;;;;;;;;;26.13;59.06;100222.31;5453641;32;37886;-79
2023/07/13 05:16:17;;;;;;;;;;;;;;;25.34;60.24;100277.25;5463264;32;34508;-77
2023/07/13 05:19:19;;;;;;;;;;;;;;;24.42;64.96;100291.87;5465813;32;34633;-71
2023/07/13 05:22:21;;;;;;;;;;;;;;;24.22;69.02;100307.22;5464080;32;35973;-79
2023/07/13 05:25:23;;;;;;;;;;;;;;;23.55;71.88;100304.75;5471234;32;34607;-70
2023/07/13 05:28:25;;;;;;;;;;;;;;;23.00;75.32;100309.94;5447687;32;34902;-71
2023/07/13 05:31:27;;;;;;;;;;;;;;;22.09;80.28;100306.50;5445714;32;35322;-81
2023/07/13 05:34:30;;;;;;;;;;;;;;;22.09;79.42;100309.19;5467017;32;34923;-79
2023/07/13 05:37:32;;;;;;;;;;;;;;;21.80;80.86;100320.59;5462885;32;34790;-78
2023/07/13 05:40:33;;;;;;;;;;;;;;;22.21;80.95;100310.75;5450896;32;34275;-66
2023/07/13 05:43:35;;;;;;;;;;;;;;;21.89;80.72;100298.37;5460643;32;34826;-68
2023/07/13 05:46:38;;;;;;;;;;;;;;;21.65;81.64;100300.53;5447706;32;35518;-78
2023/07/13 05:49:40;;;;;;;;;;;;;;;21.56;81.46;100298.63;5461758;32;34232;-68
2023/07/13 05:52:42;;;;;;;;;;;;;;;21.97;81.91;100297.72;5455297;32;34225;-68
2023/07/13 05:55:47;;;;;;;;;;;;;;;21.81;81.02;100292.00;5453413;32;35294;-69
2023/07/13 05:58:49;;;;;;;;;;;;;;;21.35;81.63;100288.81;5428542;32;34891;-79
2023/07/13 06:01:52;;;;;;;;;;;;;;;21.30;80.68;100279.50;5426223;32;35562;-72
2023/07/13 06:04:56;;;;;;;;;;;;;;;21.55;81.60;100275.56;5445786;32;35073;-72
2023/07/13 06:07:58;;;;;;;;;;;;;;;21.70;80.68;100274.22;5413702;32;34632;-71
2023/07/13 06:11:09;;;;;;;;;;;;;;;21.74;81.01;100258.75;5392955;32;34610;-75
2023/07/13 06:14:12;;;;;;;;;;;;;;;21.12;83.32;100231.09;5379661;32;34634;-69
2023/07/13 06:17:14;;;;;;;;;;;;;;;20.90;84.49;100175.13;5392795;32;34111;-74
2023/07/13 06:20:16;;;;;;;;;;;;;;;20.59;84.59;100054.06;5386314;32;34889;-77
2023/07/13 06:23:18;;;;;;;;;;;;;;;20.48;89.49;99842.31;5401097;32;34328;-78
2023/07/13 06:26:21;;;;;;;;;;;;;;;20.71;86.19;99943.53;5406334;32;35705;-76
2023/07/13 06:29:23;;;;;;;;;;;;;;;20.44;87.80;100019.69;5379353;32;34633;-75
2023/07/13 06:32:25;;;;;;;;;;;;;;;20.06;92.11;99942.91;5406745;32;36008;-77
2023/07/13 06:35:27;;;;;;;;;;;;;;;20.61;89.25;99907.94;5403234;32;36045;-75
2023/07/13 06:38:29;;;;;;;;;;;;;;;20.89;86.36;99907.19;5396811;32;34205;-69
2023/07/13 06:41:32;;;;;;;;;;;;;;;21.29;82.23;99933.84;5391464;32;34751;-69
2023/07/13 06:44:35;;;;;;;;;;;;;;;21.64;80.25;99948.50;5408107;32;35695;-68
2023/07/13 06:47:37;;;;;;;;;;;;;;;21.31;83.39;99955.91;5409343;32;34264;-69
2023/07/13 06:50:42;;;;;;;;;;;;;;;21.78;80.82;99931.19;5409471;32;34370;-77
2023/07/13 06:53:44;;;;;;;;;;;;;;;22.03;78.41;99949.31;5407785;32;34751;-75
2023/07/13 06:56:46;;;;;;;;;;;;;;;22.27;76.47;99937.28;5378588;32;35368;-70
2023/07/13 06:59:48;;;;;;;;;;;;;;;22.58;75.48;99935.19;5410787;32;34193;-70
2023/07/13 07:02:50;;;;;;;;;;;;;;;23.25;75.44;99923.28;5389145;32;35558;-69
2023/07/13 07:05:53;;;;;;;;;;;;;;;24.00;70.74;99937.19;5405147;32;34147;-66
2023/07/13 07:08:55;;;;;;;;;;;;;;;24.22;68.64;99939.34;5421218;32;840310;-66
2023/07/13 07:11:57;;;;;;;;;;;;;;;24.49;64.77;99932.97;5453179;32;34282;-79
2023/07/13 07:15:05;;;;;;;;;;;;;;;26.37;59.37;99942.16;5450333;32;35234;-78
2023/07/13 07:18:07;;;;;;;;;;;;;;;27.24;56.10;99955.66;5447319;32;36265;-66
2023/07/13 07:21:09;;;;;;;;;;;;;;;27.59;55.09;100055.97;5448155;32;34141;-66
2023/07/13 07:24:12;;;;;;;;;;;;;;;26.63;57.40;100090.19;5451388;32;35472;-69
2023/07/13 07:27:14;;;;;;;;;;;;;;;26.20;59.41;100072.50;5445766;32;34195;-70
2023/07/13 07:30:19;;;;;;;;;;;;;;;25.87;60.71;100098.53;5432726;32;33854;-69
2023/07/13 07:33:24;;;;;;;;;;;;;;;26.68;57.97;100112.06;5448297;32;36664;-78
2023/07/13 07:36:27;;;;;;;;;;;;;;;26.88;56.66;100128.72;5437946;32;34660;-77
2023/07/13 07:39:32;;;;;;;;;;;;;;;26.59;57.77;100128.41;5451669;32;35557;-80
2023/07/13 07:42:34;;;;;;;;;;;;;;;27.16;55.32;100137.28;5444139;32;34335;-82
2023/07/13 07:45:37;;;;;;;;;;;;;;;26.62;55.68;100138.87;5450302;32;34255;-77
2023/07/13 07:48:39;;;;;;;;;;;;;;;26.60;57.75;100146.25;5446775;32;34781;-68
2023/07/13 07:51:41;;;;;;;;;;;;;;;27.22;54.57;100141.97;5463806;32;34212;-69
2023/07/13 07:54:43;;;;;;;;;;;;;;;28.07;51.97;100139.38;5455134;32;33334;-69
2023/07/13 07:57:49;;;;;;;;;;;;;;;28.11;49.85;100147.16;5460725;32;35871;-68
2023/07/13 08:00:54;;;;;;;;;;;;;;;27.16;52.47;100144.53;5444940;32;35312;-75
2023/07/13 08:03:59;;;;;;;;;;;;;;;28.25;49.28;100147.22;5466599;32;35154;-83
2023/07/13 08:07:21;;;;;;;;;;;;;;;29.62;46.83;100154.19;5417900;32;34745;-70
2023/07/13 08:10:24;;;;;;;;;;;;;;;29.23;46.46;100140.94;5427730;32;35655;-68
2023/07/13 08:13:26;;;;;;;;;;;;;;;29.97;44.73;100140.88;5425476;32;35034;-69
2023/07/13 08:16:28;;;;;;;;;;;;;;;30.79;42.25;100129.59;5415963;32;34709;-75
2023/07/13 08:19:35;;;;;;;;;;;;;;;30.65;43.48;100130.47;5423320;32;34768;-69
2023/07/13 08:22:37;;;;;;;;;;;;;;;29.08;46.78;100140.09;5420347;32;34344;-72
2023/07/13 08:25:39;;;;;;;;;;;;;;;30.14;44.65;100138.75;5440766;32;34776;-86
2023/07/13 08:28:42;;;;;;;;;;;;;;;30.26;44.25;100136.38;5449178;32;35028;-70
2023/07/13 08:31:44;;;;;;;;;;;;;;;30.95;43.25;100142.00;5464714;32;37250;-86
2023/07/13 08:34:49;;;;;;;;;;;;;;;31.23;41.65;100144.66;5440920;32;34262;-83
2023/07/13 08:37:51;;;;;;;;;;;;;;;31.51;41.35;100140.06;5461142;32;34150;-75
2023/07/13 08:40:55;;;;;;;;;;;;;;;31.35;41.73;100136.84;5462714;32;33233;-69
2023/07/13 08:43:58;;;;;;;;;;;;;;;33.04;38.84;100135.75;5461268;32;34292;-69
2023/07/13 08:47:00;;;;;;;;;;;;;;;32.83;37.71;100123.19;5450419;32;35346;-78
2023/07/13 08:50:03;;;;;;;;;;;;;;;31.00;41.53;100144.97;5449525;32;34305;-74
2023/07/13 08:53:05;;;;;;;;;;;;;;;31.82;39.99;100136.03;5443022;32;34170;-73
2023/07/13 08:56:10;;;;;;;;;;;;;;;32.46;38.92;100137.41;5450835;32;34883;-72
2023/07/13 08:59:14;;;;;;;;;;;;;;;31.48;41.07;100135.03;5445771;32;34276;-74
2023/07/13 09:02:27;;;;;;;;;;;;;;;32.63;39.50;100135.97;5463605;32;34971;-74
2023/07/13 09:05:31;;;;;;;;;;;;;;;33.09;37.24;100135.09;5434390;32;34822;-77
2023/07/13 09:08:36;;;;;;;;;;;;;;;33.45;36.41;100120.16;5446110;32;36495;-73
2023/07/13 09:12:02;;;;;;;;;;;;;;;31.75;39.19;100127.84;5461934;32;34384;-78
2023/07/13 09:15:21;;;;;;;;;;;;;;;32.74;37.61;100127.19;5448516;32;36865;-73
2023/07/13 09:18:30;;;;;;;;;;;;;;;31.78;40.11;100135.59;5449840;32;34124;-75
2023/07/13 09:21:52;;;;;;;;;;;;;;;30.82;41.93;100142.75;5436605;32;34839;-69
2023/07/13 09:24:54;;;;;;;;;;;;;;;32.11;39.46;100132.13;5414445;32;34250;-73
2023/07/13 09:27:58;;;;;;;;;;;;;;;30.86;41.50;100135.91;5403922;32;35467;-72
2023/07/13 09:31:21;;;;;;;;;;;;;;;32.33;38.55;100128.22;5410739;32;35645;-71
2023/07/13 09:34:25;;;;;;;;;;;;;;;32.46;37.92;100137.41;5412003;32;34678;-70
2023/07/13 09:37:29;;;;;;;;;;;;;;;32.02;39.91;100146.97;5420270;32;34183;-71
2023/07/13 09:40:43;;;;;;;;;;;;;;;32.49;38.50;100145.19;5416059;32;35433;-71
2023/07/13 09:44:01;;;;;;;;;;;;;;;29.15;45.19;100159.97;5417354;32;34192;-74
2023/07/13 09:47:03;;;;;;;;;;;;;;;30.68;42.12;100149.94;5407011;32;34118;-71
2023/07/13 09:50:14;;;;;;;;;;;;;;;30.41;43.00;100156.16;5422139;32;35464;-71
2023/07/13 09:53:17;;;;;;;;;;;;;;;29.54;45.04;100159.72;5420623;32;34575;-75
2023/07/13 09:56:24;;;;;;;;;;;;;;;31.55;40.38;100164.94;5429052;32;34060;-85
2023/07/13 09:59:34;;;;;;;;;;;;;;;31.02;41.29;100160.00;5438436;32;33927;-70
2023/07/13 10:02:38;;;;;;;;;;;;;;;32.66;38.24;100162.78;5459748;32;34331;-70
2023/07/13 10:05:42;;;;;;;;;;;;;;;31.91;38.37;100161.12;5464648;32;35598;-82
2023/07/13 10:08:45;;;;;;;;;;;;;;;32.06;38.32;100157.19;5461412;32;33969;-76
2023/07/13 10:11:47;;;;;;;;;;;;;;;33.24;36.61;100151.22;5463583;32;35451;-73
2023/07/13 10:14:50;;;;;;;;;;;;;;;32.98;36.41;100163.81;5447186;32;34061;-70
2023/07/13 10:18:00;;;;;;;;;;;;;;;33.31;35.97;100157.47;5444662;32;34559;-83
2023/07/13 10:21:21;;;;;;;;;;;;;;;34.34;34.10;100149.28;5450776;32;35017;-82
2023/07/13 10:24:27;;;;;;;;;;;;;;;34.75;33.73;100143.28;5436957;32;34994;-82
2023/07/13 10:27:32;;;;;;;;;;;;;;;34.86;32.32;100158.94;5460653;32;34270;-71
2023/07/13 10:30:35;;;;;;;;;;;;;;;35.23;32.48;100151.66;5437182;32;35525;-80
2023/07/13 10:33:37;;;;;;;;;;;;;;;32.76;35.88;100176.78;5446526;32;35398;-91
2023/07/13 10:36:43;;;;;;;;;;;;;;;32.60;36.23;100167.16;5456198;32;35904;-83
2023/07/13 10:39:45;;;;;;;;;;;;;;;31.85;37.56;100172.81;5461784;32;34161;-77
2023/07/13 10:42:50;;;;;;;;;;;;;;;33.86;34.68;100166.06;5442571;32;34279;-86
2023/07/13 10:45:54;;;;;;;;;;;;;;;33.88;33.99;100167.56;5447951;32;37075;-74
2023/07/13 10:48:59;;;;;;;;;;;;;;;33.98;34.08;100163.53;5455009;32;36007;-71
2023/07/13 10:52:02;;;;;;;;;;;;;;;35.77;30.15;100168.28;5460543;32;33563;-72
2023/07/13 10:55:30;;;;;;;;;;;;;;;34.83;31.22;100162.09;5443765;32;34912;-76
2023/07/13 10:58:32;;;;;;;;;;;;;;;34.91;31.37;100169.19;5462586;32;34429;-72
2023/07/13 11:01:56;;;;;;;;;;;;;;;35.02;31.53;100160.28;5459170;32;34419;-76
2023/07/13 11:05:01;;;;;;;;;;;;;;;35.04;31.63;100160.91;5454816;32;35696;-75
2023/07/13 11:08:13;;;;;;;;;;;;;;;35.34;30.63;100149.22;5465120;32;33274;-75
2023/07/13 11:11:24;;;;;;;;;;;;;;;36.21;29.64;100139.72;5457594;32;34641;-78
2023/07/13 11:14:29;;;;;;;;;;;;;;;38.12;26.74;100142.66;5457216;32;34450;-77
2023/07/13 11:17:34;;;;;;;;;;;;;;;36.81;27.98;100160.66;5448991;32;34369;-77
2023/07/13 11:20:39;;;;;;;;;;;;;;;34.94;30.94;100155.94;5461271;32;34852;-72
2023/07/13 11:23:42;;;;;;;;;;;;;;;35.40;30.55;100151.88;5431277;32;34391;-76
2023/07/13 11:26:47;;;;;;;;;;;;;;;37.31;28.14;100160.19;5446169;32;34149;-83
2023/07/13 11:29:49;;;;;;;;;;;;;;;37.29;27.11;100148.59;5462201;32;35337;-72
2023/07/13 11:32:52;;;;;;;;;;;;;;;37.92;26.15;100137.62;5457276;32;34303;-75
2023/07/13 11:36:16;;;;;;;;;;;;;;;35.81;28.63;100133.97;5458297;32;34132;-70
2023/07/13 11:39:18;;;;;;;;;;;;;;;36.23;28.39;100132.09;5454190;32;35389;-75
2023/07/13 11:42:20;;;;;;;;;;;;;;;36.98;27.27;100128.78;5455372;32;34486;-74
2023/07/13 11:45:22;;;;;;;;;;;;;;;36.70;27.89;100136.84;5456865;32;34385;-74
2023/07/13 11:48:36;;;;;;;;;;;;;;;37.11;26.80;100139.50;5456853;32;34505;-81
2023/07/13 11:51:40;;;;;;;;;;;;;;;38.13;26.00;100132.50;5437086;32;34293;-77
2023/07/13 11:54:55;;;;;;;;;;;;;;;36.74;27.67;100129.81;5457834;32;34135;-77
2023/07/13 11:57:58;;;;;;;;;;;;;;;37.52;27.14;100139.53;5454281;32;35061;-70
2023/07/13 12:01:01;;;;;;;;;;;;;;;39.50;24.63;100136.59;5458746;32;34035;-81
2023/07/13 12:04:04;;;;;;;;;;;;;;;38.91;24.15;100128.09;5453740;32;37759;-79
2023/07/13 12:07:08;;;;;;;;;;;;;;;40.18;23.64;100137.94;5470365;32;33962;-80
2023/07/13 12:10:17;;;;;;;;;;;;;;;38.56;24.58;100128.34;5462821;32;34530;-84
2023/07/13 12:13:20;;;;;;;;;;;;;;;39.98;23.18;100122.03;5444660;32;35498;-77
2023/07/13 12:16:22;;;;;;;;;;;;;;;36.93;26.48;100128.66;5435920;32;34191;-81
2023/07/13 12:19:28;;;;;;;;;;;;;;;34.54;30.28;100114.50;5451469;32;34159;-78
2023/07/13 12:22:34;;;;;;;;;;;;;;;32.88;32.86;100126.13;5448699;32;36022;-75
2023/07/13 12:25:36;;;;;;;;;;;;;;;32.67;33.06;100117.34;5445406;32;34273;-86
2023/07/13 12:28:43;;;;;;;;;;;;;;;32.34;34.41;100146.22;5444586;32;34325;-81
2023/07/13 12:31:46;;;;;;;;;;;;;;;31.06;36.86;100136.03;5436126;32;36046;-79
2023/07/13 12:34:52;;;;;;;;;;;;;;;32.81;34.17;100119.84;5464768;32;35335;-76
2023/07/13 12:38:00;;;;;;;;;;;;;;;31.45;36.07;100127.28;5441775;32;36347;-71
2023/07/13 12:41:03;;;;;;;;;;;;;;;31.51;36.05;100106.62;5440023;32;35491;-72
2023/07/13 12:44:09;;;;;;;;;;;;;;;30.80;36.98;100125.00;5462425;32;34208;-81
2023/07/13 12:47:12;;;;;;;;;;;;;;;31.46;36.42;100115.37;5440943;32;34683;-79
2023/07/13 12:50:17;;;;;;;;;;;;;;;31.34;36.38;100116.16;5458305;32;35965;-76
2023/07/13 12:53:20;;;;;;;;;;;;;;;31.86;35.35;100120.97;5459745;32;35414;-74
2023/07/13 12:56:23;;;;;;;;;;;;;;;31.22;35.83;100124.00;5433811;32;35460;-78
2023/07/13 12:59:28;;;;;;;;;;;;;;;32.13;34.28;100118.31;5451885;32;35079;-82
2023/07/13 13:02:32;;;;;;;;;;;;;;;31.53;35.51;100109.97;5441500;32;35912;-75
2023/07/13 13:05:34;;;;;;;;;;;;;;;31.56;35.74;100109.59;5464845;32;34823;-74
2023/07/13 13:08:36;;;;;;;;;;;;;;;31.58;35.75;100112.94;5449607;32;34428;-69
2023/07/13 13:11:39;;;;;;;;;;;;;;;30.73;37.80;100116.81;5462099;32;34198;-75
2023/07/13 13:14:42;;;;;;;;;;;;;;;31.05;36.27;100111.81;5445315;32;34273;-86
2023/07/13 13:17:44;;;;;;;;;;;;;;;31.60;35.22;100113.56;5448415;32;35703;-70
2023/07/13 13:20:46;;;;;;;;;;;;;;;31.22;36.06;100103.12;5461796;32;34446;-78
2023/07/13 13:23:51;;;;;;;;;;;;;;;31.24;36.37;100101.09;5447210;32;35209;-75
2023/07/13 13:27:01;;;;;;;;;;;;;;;31.85;34.67;100096.75;5462562;32;34245;-76
2023/07/13 13:30:08;;;;;;;;;;;;;;;31.13;36.33;100100.78;5460488;32;35344;-75
2023/07/13 13:33:14;;;;;;;;;;;;;;;30.98;36.97;100100.91;5436015;32;34655;-80
2023/07/13 13:36:17;;;;;;;;;;;;;;;31.02;36.49;100107.59;5460201;32;34238;-75
2023/07/13 13:39:21;;;;;;;;;;;;;;;31.56;35.89;100101.44;5446741;32;35649;-81
2023/07/13 13:42:24;;;;;;;;;;;;;;;32.12;34.88;100106.62;5438711;32;34269;-78
2023/07/13 13:45:27;;;;;;;;;;;;;;;31.44;36.19;100100.34;5466409;32;34470;-79
2023/07/13 13:48:32;;;;;;;;;;;;;;;31.71;35.57;100088.53;5460938;32;35293;-74
2023/07/13 13:51:34;;;;;;;;;;;;;;;31.87;35.13;100094.66;5456601;32;34354;-71
2023/07/13 13:54:38;;;;;;;;;;;;;;;31.80;35.39;100098.19;5460938;32;34816;-76
2023/07/13 13:57:42;;;;;;;;;;;;;;;31.61;35.83;100088.06;5467004;32;34955;-77
2023/07/13 14:00:45;;;;;;;;;;;;;;;31.86;35.29;100093.81;5457356;32;34950;-84
2023/07/13 14:03:51;;;;;;;;;;;;;;;31.60;35.59;100089.09;5440881;32;34270;-72
2023/07/13 14:06:53;;;;;;;;;;;;;;;31.52;36.21;100094.72;5453648;32;34762;-76
2023/07/13 14:09:56;;;;;;;;;;;;;;;31.51;36.16;100102.03;5443501;32;34128;-72
2023/07/13 14:12:59;;;;;;;;;;;;;;;30.61;37.59;100102.09;5436452;32;34975;-79
2023/07/13 14:16:01;;;;;;;;;;;;;;;31.13;36.75;100103.50;5456966;32;34206;-70
2023/07/13 14:19:03;;;;;;;;;;;;;;;31.73;35.73;100089.16;5445112;32;35530;-66
2023/07/13 14:22:06;;;;;;;;;;;;;;;31.65;35.85;100102.09;5459605;32;36452;-71
2023/07/13 14:25:09;;;;;;;;;;;;;;;30.89;36.88;100097.50;5444696;32;35555;-70
2023/07/13 14:28:24;;;;;;;;;;;;;;;31.63;36.48;100104.19;5439648;32;34263;-76
2023/07/13 14:31:28;;;;;;;;;;;;;;;31.27;36.70;100105.28;5443394;32;34895;-70
2023/07/13 14:34:32;;;;;;;;;;;;;;;31.50;36.32;100092.22;5458826;32;34589;-70
2023/07/13 14:37:34;;;;;;;;;;;;;;;31.76;35.91;100101.50;5457087;32;35467;-69
2023/07/13 14:40:36;;;;;;;;;;;;;;;31.47;36.58;100125.19;5447912;32;35178;-70
2023/07/13 14:43:41;;;;;;;;;;;;;;;30.73;38.01;100133.94;5446919;32;35923;-71
2023/07/13 14:46:43;;;;;;;;;;;;;;;30.71;38.57;100132.44;5466438;32;34688;-76
2023/07/13 14:49:47;;;;;;;;;;;;;;;30.78;38.18;100133.31;5448068;32;35599;-69
2023/07/13 14:52:49;;;;;;;;;;;;;;;30.69;38.51;100145.34;5467155;32;34265;-76
2023/07/13 14:55:51;;;;;;;;;;;;;;;30.91;38.21;100149.69;5451427;32;35022;-75
2023/07/13 14:58:54;;;;;;;;;;;;;;;30.13;39.66;100153.34;5447696;32;34245;-76
2023/07/13 15:01:56;;;;;;;;;;;;;;;30.06;39.48;100145.13;5465833;32;34958;-76
2023/07/13 15:04:58;;;;;;;;;;;;;;;31.02;37.56;100140.16;5462650;32;34816;-70
2023/07/13 15:08:02;;;;;;;;;;;;;;;31.00;36.86;100123.25;5452878;32;34610;-70
2023/07/13 15:11:04;;;;;;;;;;;;;;;31.10;36.90;100136.44;5467149;32;35685;-75
2023/07/13 15:14:07;;;;;;;;;;;;;;;30.70;37.71;100131.59;5456621;32;35691;-69
2023/07/13 15:17:23;;;;;;;;;;;;;;;31.05;36.90;100149.81;5462291;32;34851;-69
2023/07/13 15:20:28;;;;;;;;;;;;;;;30.86;36.63;100162.19;5446713;32;35392;-78
2023/07/13 15:23:34;;;;;;;;;;;;;;;30.56;37.18;100164.19;5438204;32;35096;-70
2023/07/13 15:26:36;;;;;;;;;;;;;;;30.90;36.72;100152.59;5460424;32;34304;-70
2023/07/13 15:29:42;;;;;;;;;;;;;;;31.09;36.64;100159.22;5448560;32;34201;-71
2023/07/13 15:32:45;;;;;;;;;;;;;;;30.16;38.23;100158.41;5463113;32;34634;-69
2023/07/13 15:35:48;;;;;;;;;;;;;;;30.14;38.33;100153.19;5446811;32;35581;-76
2023/07/13 15:38:50;;;;;;;;;;;;;;;30.30;37.74;100157.50;5465793;32;35337;-70
2023/07/13 15:41:54;;;;;;;;;;;;;;;30.50;37.45;100146.00;5464306;32;34975;-74
2023/07/13 15:44:56;;;;;;;;;;;;;;;30.88;36.75;100144.66;5465896;32;34722;-71
2023/07/13 15:47:58;;;;;;;;;;;;;;;30.17;37.97;100136.53;5448178;32;34134;-78